createdAt,value
2023-03-06T00:01:34.415Z,99137.03
2023-03-06T00:04:01.029Z,99134.41
2023-03-06T00:06:27.655Z,99132.72
2023-03-06T00:08:54.679Z,99133.03
2023-03-06T00:11:21.257Z,99123.44
2023-03-06T00:13:47.811Z,99122.56
2023-03-06T00:16:14.980Z,99119.22
2023-03-06T00:18:44.008Z,99114.03
2023-03-06T00:21:10.493Z,99118.69
2023-03-06T00:23:37.113Z,99110.34
2023-03-06T00:26:07.669Z,99108.66
2023-03-06T00:28:35.407Z,99109.38
2023-03-06T00:31:02.207Z,99109.38
2023-03-06T00:33:28.824Z,99113.78
2023-03-06T00:35:55.294Z,99109.25
2023-03-06T00:38:21.810Z,99100.78
2023-03-06T00:40:49.229Z,99106.72
2023-03-06T00:43:15.945Z,99110.00
2023-03-06T00:45:43.027Z,99100.78
2023-03-06T00:48:10.860Z,99104.69
2023-03-06T00:50:37.572Z,99097.94
2023-03-06T00:53:04.128Z,99086.00
2023-03-06T00:55:31.124Z,99092.06
2023-03-06T00:57:57.682Z,99089.41
2023-03-06T01:00:26.359Z,99088.38
2023-03-06T01:02:53.691Z,99075.31
2023-03-06T01:05:22.093Z,99078.84
2023-03-06T01:07:48.558Z,99078.94
2023-03-06T01:10:15.187Z,99065.31
2023-03-06T01:12:41.835Z,99066.16
2023-03-06T01:15:09.136Z,99056.63
2023-03-06T01:17:36.008Z,99067.44
2023-03-06T01:20:03.155Z,99055.50
2023-03-06T01:22:30.409Z,99054.69
2023-03-06T01:24:57.002Z,99050.28
2023-03-06T01:27:23.688Z,99042.44
2023-03-06T01:29:50.224Z,99042.59
2023-03-06T01:32:16.755Z,99040.81
2023-03-06T01:34:43.433Z,99036.88
2023-03-06T01:37:10.168Z,99029.66
2023-03-06T01:39:36.661Z,99037.19
2023-03-06T01:42:03.354Z,99031.97
2023-03-06T01:44:30.370Z,99016.53
2023-03-06T01:46:56.856Z,99001.06
2023-03-06T01:49:31.102Z,99015.56
2023-03-06T01:52:02.132Z,99024.44
2023-03-06T01:54:31.903Z,99017.44
2023-03-06T01:57:09.342Z,99008.22
2023-03-06T01:59:36.202Z,99008.16
2023-03-06T02:02:03.861Z,99007.41
2023-03-06T02:04:30.772Z,98997.84
2023-03-06T02:06:59.334Z,98997.84
2023-03-06T02:09:30.096Z,99002.06
2023-03-06T02:11:56.632Z,98995.16
2023-03-06T02:14:23.480Z,99001.97
2023-03-06T02:16:50.661Z,99005.53
2023-03-06T02:19:26.660Z,98995.34
2023-03-06T02:21:53.190Z,98987.63
2023-03-06T02:24:38.378Z,99002.06
2023-03-06T02:27:06.901Z,98992.63
2023-03-06T02:29:33.665Z,98974.81
2023-03-06T02:32:02.844Z,98973.72
2023-03-06T02:34:29.391Z,98990.00
2023-03-06T02:37:00.808Z,98971.34
2023-03-06T02:39:30.228Z,98971.19
2023-03-06T02:41:57.023Z,98975.31
2023-03-06T02:44:24.467Z,98969.72
2023-03-06T02:46:51.261Z,98970.66
2023-03-06T02:49:18.052Z,98943.91
2023-03-06T02:51:44.700Z,98954.91
2023-03-06T02:54:11.944Z,98946.38
2023-03-06T02:56:38.629Z,98953.34
2023-03-06T02:59:10.793Z,98945.69
2023-03-06T03:01:38.092Z,98948.06
2023-03-06T03:04:04.822Z,98947.06
2023-03-06T03:06:32.409Z,98952.09
2023-03-06T03:08:59.230Z,98954.72
2023-03-06T03:11:25.854Z,98949.38
2023-03-06T03:13:53.192Z,98945.13
2023-03-06T03:16:23.806Z,98939.00
2023-03-06T03:18:51.166Z,98928.06
2023-03-06T03:21:20.425Z,98931.94
2023-03-06T03:23:48.223Z,98942.56
2023-03-06T03:26:17.837Z,98940.72
2023-03-06T03:28:50.194Z,98941.88
2023-03-06T03:31:19.560Z,98948.66
2023-03-06T03:33:46.512Z,98935.72
2023-03-06T03:36:13.669Z,98935.63
2023-03-06T03:38:44.349Z,98933.28
2023-03-06T03:41:11.669Z,98928.72
2023-03-06T03:43:38.365Z,98930.50
2023-03-06T03:46:06.059Z,98928.97
2023-03-06T03:48:33.443Z,98928.97
2023-03-06T03:51:11.826Z,98925.44
2023-03-06T03:53:44.197Z,98932.09
2023-03-06T03:56:13.242Z,98926.38
2023-03-06T03:58:48.596Z,98927.88
2023-03-06T04:01:15.914Z,98923.56
2023-03-06T04:03:42.706Z,98912.34
2023-03-06T04:06:10.649Z,98917.50
2023-03-06T04:08:38.166Z,98921.56
2023-03-06T04:11:05.241Z,98907.97
2023-03-06T04:13:32.392Z,98905.19
2023-03-06T04:15:59.757Z,98898.50
2023-03-06T04:18:28.680Z,98909.41
2023-03-06T04:20:59.427Z,98900.78
2023-03-06T04:23:27.885Z,98905.09
2023-03-06T04:25:54.903Z,98893.75
2023-03-06T04:28:22.442Z,98898.34
2023-03-06T04:30:49.406Z,98890.06
2023-03-06T04:33:17.456Z,98895.06
2023-03-06T04:35:44.585Z,98891.84
2023-03-06T04:38:17.562Z,98877.19
2023-03-06T04:40:45.618Z,98884.94
2023-03-06T04:43:12.533Z,98878.00
2023-03-06T04:45:39.170Z,98871.34
2023-03-06T04:48:06.254Z,98867.25
2023-03-06T04:50:33.315Z,98867.88
2023-03-06T04:53:01.312Z,98869.66
2023-03-06T04:55:28.364Z,98867.88
2023-03-06T04:57:55.308Z,98868.06
2023-03-06T05:00:24.661Z,98875.47
2023-03-06T05:02:51.408Z,98881.47
2023-03-06T05:05:18.631Z,98874.66
2023-03-06T05:07:45.215Z,98862.66
2023-03-06T05:10:13.785Z,98869.75
2023-03-06T05:12:40.380Z,98865.44
2023-03-06T05:15:08.189Z,98864.97
2023-03-06T05:17:34.762Z,98866.81
2023-03-06T05:20:01.415Z,98862.41
2023-03-06T05:22:28.139Z,98873.47
2023-03-06T05:24:54.722Z,98861.91
2023-03-06T05:27:21.586Z,98864.78
2023-03-06T05:29:48.445Z,98867.31
2023-03-06T05:32:16.404Z,98848.09
2023-03-06T05:34:43.334Z,98852.91
2023-03-06T05:37:10.073Z,98858.81
2023-03-06T05:39:37.449Z,98865.69
2023-03-06T05:42:04.401Z,98866.03
2023-03-06T05:44:33.320Z,98849.84
2023-03-06T05:47:00.476Z,98851.44
2023-03-06T05:49:31.916Z,98859.28
2023-03-06T05:52:00.852Z,98857.53
2023-03-06T05:54:27.438Z,98856.94
2023-03-06T05:56:54.084Z,98852.66
2023-03-06T05:59:20.757Z,98855.34
2023-03-06T06:01:47.605Z,98853.47
2023-03-06T06:04:14.371Z,98849.16
2023-03-06T06:06:41.043Z,98848.53
2023-03-06T06:09:07.880Z,98857.88
2023-03-06T06:11:34.568Z,98863.78
2023-03-06T06:14:01.407Z,98849.34
2023-03-06T06:16:28.190Z,98845.22
2023-03-06T06:18:54.868Z,98837.38
2023-03-06T06:21:21.457Z,98858.63
2023-03-06T06:23:48.229Z,98832.47
2023-03-06T06:26:14.978Z,98844.94
2023-03-06T06:28:41.841Z,98855.16
2023-03-06T06:31:10.450Z,98850.03
2023-03-06T06:33:37.063Z,98869.59
2023-03-06T06:36:03.839Z,98864.19
2023-03-06T06:38:30.435Z,98867.47
2023-03-06T06:41:27.203Z,98865.63
2023-03-06T06:43:43.495Z,98872.53
2023-03-06T06:46:38.842Z,98873.47
2023-03-06T06:48:56.356Z,98871.19
2023-03-06T06:51:23.145Z,98874.88
2023-03-06T06:53:52.636Z,98876.59
2023-03-06T06:56:19.180Z,98877.34
2023-03-06T06:58:45.737Z,98882.50
2023-03-06T07:01:13.337Z,98882.41
2023-03-06T07:03:40.606Z,98878.72
2023-03-06T07:06:07.366Z,98878.72
2023-03-06T07:08:34.476Z,98882.94
2023-03-06T07:11:09.890Z,98882.06
2023-03-06T07:13:36.445Z,98886.28
2023-03-06T07:16:03.064Z,98882.84
2023-03-06T07:18:30.130Z,98889.75
2023-03-06T07:20:57.114Z,98885.19
2023-03-06T07:23:26.403Z,98885.28
2023-03-06T07:25:56.873Z,98886.19
2023-03-06T07:28:23.669Z,98887.06
2023-03-06T07:30:50.257Z,98883.25
2023-03-06T07:33:16.913Z,98882.22
2023-03-06T07:35:44.216Z,98881.22
2023-03-06T07:38:10.954Z,98872.94
2023-03-06T07:40:38.746Z,98875.28
2023-03-06T07:43:18.775Z,98868.03
2023-03-06T07:45:59.616Z,98872.03
2023-03-06T07:48:27.357Z,98870.78
2023-03-06T07:51:02.200Z,98873.28
2023-03-06T07:53:29.675Z,98874.16
2023-03-06T07:55:56.411Z,98881.25
2023-03-06T07:58:23.487Z,98876.94
2023-03-06T08:00:49.926Z,98883.03
2023-03-06T08:03:16.481Z,98884.69
2023-03-06T08:05:44.151Z,98886.47
2023-03-06T08:08:11.236Z,98891.72
2023-03-06T08:10:37.778Z,98886.56
2023-03-06T08:13:04.717Z,98895.34
2023-03-06T08:15:31.195Z,98893.66
2023-03-06T08:17:57.613Z,98902.38
2023-03-06T08:20:24.065Z,98897.03
2023-03-06T08:22:50.472Z,98895.16
2023-03-06T08:25:16.995Z,98897.78
2023-03-06T08:27:43.713Z,98900.69
2023-03-06T08:30:10.573Z,98903.19
2023-03-06T08:32:37.557Z,98903.09
2023-03-06T08:35:04.831Z,98907.16
2023-03-06T08:37:31.321Z,98901.66
2023-03-06T08:39:57.773Z,98905.59
2023-03-06T08:42:24.267Z,98906.88
2023-03-06T08:44:50.736Z,98912.63
2023-03-06T08:47:17.157Z,98905.59
2023-03-06T08:49:43.609Z,98913.38
2023-03-06T08:52:11.026Z,98917.44
2023-03-06T08:54:38.562Z,98922.53
2023-03-06T08:57:05.018Z,98911.78
2023-03-06T08:59:31.405Z,98914.28
2023-03-06T09:01:57.909Z,98914.38
2023-03-06T09:04:24.396Z,98912.34
2023-03-06T09:06:50.974Z,98916.47
2023-03-06T09:09:17.644Z,98916.88
2023-03-06T09:11:44.058Z,98924.56
2023-03-06T09:14:10.564Z,98921.19
2023-03-06T09:16:36.986Z,98913.25
2023-03-06T09:19:03.435Z,98918.56
2023-03-06T09:21:29.856Z,98918.13
2023-03-06T09:23:56.348Z,98915.16
2023-03-06T09:26:28.032Z,98916.75
2023-03-06T09:28:59.509Z,98919.19
2023-03-06T09:31:26.028Z,98916.19
2023-03-06T09:33:52.456Z,98915.28
2023-03-06T09:36:20.819Z,98916.88
2023-03-06T09:38:49.618Z,98914.81
2023-03-06T09:41:33.290Z,98914.81
2023-03-06T09:44:20.560Z,98920.97
2023-03-06T09:47:18.978Z,98914.03
2023-03-06T09:50:00.898Z,98922.16
2023-03-06T09:52:45.901Z,98920.56
2023-03-06T09:55:19.308Z,98918.63
2023-03-06T09:58:07.501Z,98924.44
2023-03-06T10:00:38.465Z,98906.66
2023-03-06T10:03:16.088Z,98913.22
2023-03-06T10:05:47.038Z,98906.75
2023-03-06T10:08:30.292Z,98920.91
2023-03-06T10:11:03.496Z,98918.47
2023-03-06T10:13:45.961Z,98919.88
2023-03-06T10:16:29.623Z,98919.97
2023-03-06T10:19:00.470Z,98925.19
2023-03-06T10:22:02.968Z,98916.50
2023-03-06T10:24:43.228Z,98920.34
2023-03-06T10:27:39.808Z,98915.00
2023-03-06T10:30:20.968Z,98918.47
2023-03-06T10:33:02.111Z,98920.72
2023-03-06T10:35:32.026Z,98917.06
2023-03-06T10:38:21.506Z,98920.34
2023-03-06T10:40:55.741Z,98910.84
2023-03-06T10:43:22.680Z,98909.84
2023-03-06T10:45:51.627Z,98910.47
2023-03-06T10:48:27.105Z,98913.66
2023-03-06T10:51:21.090Z,98916.53
2023-03-06T10:53:55.126Z,98910.38
2023-03-06T10:56:28.747Z,98902.84
2023-03-06T10:59:18.186Z,98904.34
2023-03-06T11:01:50.087Z,98903.47
2023-03-06T11:04:24.015Z,98906.66
2023-03-06T11:07:15.941Z,98910.41
2023-03-06T11:09:44.387Z,98909.78
2023-03-06T11:12:37.697Z,98903.75
2023-03-06T11:15:07.480Z,98904.41
2023-03-06T11:17:37.249Z,98908.34
2023-03-06T11:20:20.691Z,98893.84
2023-03-06T11:22:51.240Z,98898.59
2023-03-06T11:25:19.149Z,98895.88
2023-03-06T11:27:47.272Z,98891.88
2023-03-06T11:30:23.831Z,98889.41
2023-03-06T11:33:02.922Z,98882.00
2023-03-06T11:35:47.273Z,98887.78
2023-03-06T11:38:19.190Z,98887.56
2023-03-06T11:40:58.683Z,98879.69
2023-03-06T11:43:29.956Z,98875.91
2023-03-06T11:46:00.588Z,98880.13
2023-03-06T11:48:32.409Z,98876.16
2023-03-06T11:51:06.518Z,98876.88
2023-03-06T11:53:35.289Z,98873.81
2023-03-06T11:56:23.399Z,98869.31
2023-03-06T11:59:20.840Z,98870.88
2023-03-06T12:01:51.646Z,98863.28
2023-03-06T12:04:36.711Z,98858.47
2023-03-06T12:07:07.607Z,98847.78
2023-03-06T12:09:51.961Z,98849.34
2023-03-06T12:12:32.855Z,98850.00
2023-03-06T12:15:08.667Z,98849.66
2023-03-06T12:17:44.672Z,98842.53
2023-03-06T12:20:23.367Z,98843.16
2023-03-06T12:23:02.401Z,98836.22
2023-03-06T12:25:42.071Z,98841.38
2023-03-06T12:28:42.383Z,98831.66
2023-03-06T12:31:15.679Z,98829.53
2023-03-06T12:34:09.844Z,98824.06
2023-03-06T12:36:51.736Z,98829.66
2023-03-06T12:39:48.153Z,98826.16
2023-03-06T12:42:40.731Z,98832.16
2023-03-06T12:45:34.954Z,98817.34
2023-03-06T12:48:02.050Z,98827.22
2023-03-06T12:50:33.488Z,98822.59
2023-03-06T12:53:05.796Z,98829.72
2023-03-06T12:55:46.610Z,98826.47
2023-03-06T12:58:28.114Z,98825.44
2023-03-06T13:01:09.630Z,98820.50
2023-03-06T13:04:02.710Z,98815.03
2023-03-06T13:06:39.246Z,98812.38
2023-03-06T13:09:18.940Z,98805.38
2023-03-06T13:12:17.260Z,98815.47
2023-03-06T13:14:53.862Z,98810.63
2023-03-06T13:17:20.850Z,98809.88
2023-03-06T13:19:47.952Z,98810.63
2023-03-06T13:22:26.652Z,98810.81
2023-03-06T13:25:33.322Z,98810.22
2023-03-06T13:28:03.321Z,98801.28
2023-03-06T13:30:38.642Z,98811.56
2023-03-06T13:33:26.486Z,98796.03
2023-03-06T13:35:54.009Z,98806.53
2023-03-06T13:38:37.093Z,98803.25
2023-03-06T13:41:21.910Z,98796.72
2023-03-06T13:43:53.157Z,98796.50
2023-03-06T13:46:27.274Z,98782.47
2023-03-06T13:49:15.503Z,98779.84
2023-03-06T13:51:47.493Z,98782.78
2023-03-06T13:54:25.388Z,98773.84
2023-03-06T13:57:13.795Z,98768.59
2023-03-06T14:00:10.349Z,98777.53
2023-03-06T14:02:48.956Z,98775.22
2023-03-06T14:05:17.142Z,98771.25
2023-03-06T14:07:48.024Z,98770.84
2023-03-06T14:10:14.390Z,98773.91
2023-03-06T14:12:44.354Z,98768.31
2023-03-06T14:15:25.410Z,98766.75
2023-03-06T14:18:01.747Z,98773.00
2023-03-06T14:20:44.209Z,98765.00
2023-03-06T14:23:51.284Z,98760.56
2023-03-06T14:26:20.252Z,98764.25
2023-03-06T14:28:56.461Z,98751.72
2023-03-06T14:31:24.954Z,98741.97
2023-03-06T14:33:59.902Z,98748.03
2023-03-06T14:36:32.391Z,98745.41
2023-03-06T14:39:04.126Z,98746.16
2023-03-06T14:41:32.693Z,98749.75
2023-03-06T14:44:16.572Z,98738.28
2023-03-06T14:46:47.288Z,98740.91
2023-03-06T14:49:15.300Z,98740.59
2023-03-06T14:51:44.342Z,98751.09
2023-03-06T14:54:15.786Z,98759.00
2023-03-06T14:56:44.009Z,98754.56
2023-03-06T14:59:12.471Z,98749.84
2023-03-06T15:01:42.053Z,98747.66
2023-03-06T15:04:23.379Z,98750.34
2023-03-06T15:06:49.997Z,98752.38
2023-03-06T15:09:24.368Z,98755.44
2023-03-06T15:12:02.757Z,98763.72
2023-03-06T15:14:32.143Z,98760.69
2023-03-06T15:17:16.922Z,98756.78
2023-03-06T15:19:47.453Z,98757.31
2023-03-06T15:22:30.712Z,98757.94
2023-03-06T15:25:22.784Z,98763.06
2023-03-06T15:27:51.557Z,98753.31
2023-03-06T15:30:30.233Z,98752.03
2023-03-06T15:33:17.943Z,98754.97
2023-03-06T15:36:01.616Z,98759.81
2023-03-06T15:38:40.794Z,98763.16
2023-03-06T15:41:21.058Z,98759.03
2023-03-06T15:43:48.623Z,98772.25
2023-03-06T15:46:15.107Z,98765.84
2023-03-06T15:48:54.930Z,98762.56
2023-03-06T15:51:21.379Z,98776.94
2023-03-06T15:53:47.960Z,98784.22
2023-03-06T15:56:14.389Z,98783.41
2023-03-06T15:58:41.342Z,98783.72
2023-03-06T16:01:13.177Z,98771.50
2023-03-06T16:03:39.627Z,98779.94
2023-03-06T16:06:06.046Z,98772.28
2023-03-06T16:08:32.475Z,98772.66
2023-03-06T16:10:59.111Z,98772.75
2023-03-06T16:13:27.258Z,98772.09
2023-03-06T16:15:54.336Z,98774.50
2023-03-06T16:18:20.828Z,98777.91
2023-03-06T16:20:47.257Z,98770.69
2023-03-06T16:23:15.252Z,98770.59
2023-03-06T16:25:43.604Z,98772.56
2023-03-06T16:28:12.184Z,98770.97
2023-03-06T16:30:38.839Z,98774.34
2023-03-06T16:33:05.649Z,98770.88
2023-03-06T16:35:32.072Z,98778.63
2023-03-06T16:37:59.850Z,98779.66
2023-03-06T16:40:32.422Z,98765.63
2023-03-06T16:42:59.056Z,98775.53
2023-03-06T16:45:25.517Z,98777.13
2023-03-06T16:47:52.151Z,98781.25
2023-03-06T16:50:40.535Z,98788.16
2023-03-06T16:53:07.693Z,98789.75
2023-03-06T16:55:34.688Z,98791.72
2023-03-06T16:58:01.128Z,98790.13
2023-03-06T17:00:32.909Z,98787.72
2023-03-06T17:03:00.859Z,98786.69
2023-03-06T17:05:28.660Z,98785.84
2023-03-06T17:07:55.773Z,98792.19
2023-03-06T17:10:26.140Z,98785.31
2023-03-06T17:12:52.986Z,98791.47
2023-03-06T17:15:19.772Z,98793.44
2023-03-06T17:17:46.327Z,98792.03
2023-03-06T17:20:13.505Z,98793.78
2023-03-06T17:22:41.408Z,98801.09
2023-03-06T17:25:08.996Z,98797.66
2023-03-06T17:27:36.354Z,98798.56
2023-03-06T17:30:04.258Z,98801.09
2023-03-06T17:32:32.158Z,98788.47
2023-03-06T17:34:58.825Z,98800.91
2023-03-06T17:38:01.434Z,98804.72
2023-03-06T17:40:29.698Z,98796.56
2023-03-06T17:42:56.480Z,98803.50
2023-03-06T17:45:22.970Z,98795.06
2023-03-06T17:47:53.378Z,98803.19
2023-03-06T17:50:20.046Z,98802.28
2023-03-06T17:52:46.970Z,98793.84
2023-03-06T17:55:13.848Z,98803.84
2023-03-06T17:57:40.418Z,98797.38
2023-03-06T18:00:07.738Z,98812.84
2023-03-06T18:02:38.800Z,98806.75
2023-03-06T18:05:06.209Z,98801.03
2023-03-06T18:07:32.735Z,98807.13
2023-03-06T18:09:59.278Z,98814.78
2023-03-06T18:12:25.963Z,98802.63
2023-03-06T18:14:52.487Z,98818.16
2023-03-06T18:17:19.020Z,98802.41
2023-03-06T18:19:45.549Z,98811.78
2023-03-06T18:22:12.068Z,98820.72
2023-03-06T18:24:38.574Z,98821.38
2023-03-06T18:27:05.187Z,98824.66
2023-03-06T18:29:31.679Z,98811.81
2023-03-06T18:31:59.278Z,98812.16
2023-03-06T18:34:26.062Z,98812.75
2023-03-06T18:36:52.977Z,98815.34
2023-03-06T18:39:21.442Z,98818.66
2023-03-06T18:41:48.330Z,98825.72
2023-03-06T18:44:16.171Z,98824.91
2023-03-06T18:46:43.332Z,98826.50
2023-03-06T18:49:11.461Z,98814.63
2023-03-06T18:51:38.238Z,98818.91
2023-03-06T18:54:06.321Z,98821.72
2023-03-06T18:56:33.361Z,98811.69
2023-03-06T18:59:06.752Z,98809.16
2023-03-06T19:01:33.818Z,98814.97
2023-03-06T19:04:04.085Z,98820.78
2023-03-06T19:06:30.948Z,98825.53
2023-03-06T19:08:58.821Z,98799.72
2023-03-06T19:11:26.883Z,98807.13
2023-03-06T19:13:53.988Z,98808.53
2023-03-06T19:16:23.590Z,98793.13
2023-03-06T19:18:50.481Z,98801.03
2023-03-06T19:21:21.825Z,98784.13
2023-03-06T19:23:48.733Z,98802.81
2023-03-06T19:26:16.264Z,98780.25
2023-03-06T19:28:43.256Z,98781.09
2023-03-06T19:31:19.571Z,98789.69
2023-03-06T19:33:47.608Z,98794.16
2023-03-06T19:36:15.066Z,98790.53
2023-03-06T19:38:42.157Z,98798.22
2023-03-06T19:41:13.362Z,98784.97
2023-03-06T19:43:41.813Z,98781.50
2023-03-06T19:46:14.721Z,98789.19
2023-03-06T19:48:42.189Z,98791.06
2023-03-06T19:51:09.797Z,98785.91
2023-03-06T19:53:36.655Z,98774.00
2023-03-06T19:56:08.731Z,98794.59
2023-03-06T19:58:35.728Z,98782.63
2023-03-06T20:01:10.707Z,98790.47
2023-03-06T20:03:37.569Z,98780.25
2023-03-06T20:06:08.961Z,98773.63
2023-03-06T20:08:36.422Z,98787.19
2023-03-06T20:11:03.168Z,98771.00
2023-03-06T20:13:30.042Z,98768.47
2023-03-06T20:15:57.871Z,98786.34
2023-03-06T20:18:24.372Z,98772.03
2023-03-06T20:21:01.129Z,98760.78
2023-03-06T20:23:27.808Z,98761.06
2023-03-06T20:25:54.713Z,98764.28
2023-03-06T20:28:22.172Z,98757.44
2023-03-06T20:30:49.177Z,98768.38
2023-03-06T20:33:16.732Z,98748.25
2023-03-06T20:35:43.826Z,98754.16
2023-03-06T20:38:10.764Z,98751.63
2023-03-06T20:40:38.887Z,98737.13
2023-03-06T20:43:05.602Z,98749.75
2023-03-06T20:45:32.792Z,98750.53
2023-03-06T20:47:59.254Z,98749.66
2023-03-06T20:50:26.231Z,98743.03
2023-03-06T20:52:56.688Z,98748.06
2023-03-06T20:55:23.197Z,98752.84
2023-03-06T20:57:50.481Z,98749.84
2023-03-06T21:00:18.653Z,98764.28
2023-03-06T21:02:45.244Z,98745.44
2023-03-06T21:05:11.728Z,98742.00
2023-03-06T21:07:39.458Z,98746.56
2023-03-06T21:10:06.787Z,98745.88
2023-03-06T21:12:33.272Z,98735.53
2023-03-06T21:14:59.869Z,98746.75
2023-03-06T21:17:27.393Z,98734.09
2023-03-06T21:19:53.835Z,98740.50
2023-03-06T21:22:20.273Z,98745.06
2023-03-06T21:24:46.768Z,98739.97
2023-03-06T21:27:13.282Z,98746.22
2023-03-06T21:29:39.775Z,98730.22
2023-03-06T21:32:06.252Z,98738.75
2023-03-06T21:34:33.229Z,98745.13
2023-03-06T21:36:59.812Z,98740.00
2023-03-06T21:39:26.246Z,98737.47
2023-03-06T21:41:52.754Z,98727.47
2023-03-06T21:44:19.644Z,98733.44
2023-03-06T21:46:46.446Z,98724.16
2023-03-06T21:49:12.906Z,98732.09
2023-03-06T21:51:39.549Z,98715.06
2023-03-06T21:54:06.599Z,98730.41
2023-03-06T21:56:33.514Z,98722.22
2023-03-06T21:59:00.153Z,98725.31
2023-03-06T22:01:28.581Z,98725.09
2023-03-06T22:03:55.408Z,98720.38
2023-03-06T22:06:24.137Z,98713.38
2023-03-06T22:08:51.110Z,98719.19
2023-03-06T22:11:19.871Z,98716.66
2023-03-06T22:13:47.943Z,98700.50
2023-03-06T22:16:15.147Z,98713.88
2023-03-06T22:18:46.045Z,98699.47
2023-03-06T22:21:14.972Z,98706.31
2023-03-06T22:23:41.717Z,98694.94
2023-03-06T22:26:12.529Z,98702.50
2023-03-06T22:28:39.852Z,98704.69
2023-03-06T22:31:14.733Z,98685.72
2023-03-06T22:33:41.392Z,98695.78
2023-03-06T22:36:10.805Z,98689.88
2023-03-06T22:38:39.857Z,98695.50
2023-03-06T22:41:07.188Z,98692.63
2023-03-06T22:43:34.638Z,98682.91
2023-03-06T22:46:02.466Z,98684.47
2023-03-06T22:48:29.183Z,98680.81
2023-03-06T22:50:55.653Z,98682.47
2023-03-06T22:53:22.098Z,98695.50
2023-03-06T22:55:48.593Z,98681.56
2023-03-06T22:58:15.317Z,98677.94
2023-03-06T23:00:41.739Z,98676.00
2023-03-06T23:03:08.296Z,98668.00
2023-03-06T23:05:34.774Z,98661.81
2023-03-06T23:08:01.198Z,98660.97
2023-03-06T23:10:27.624Z,98664.06
2023-03-06T23:13:13.453Z,98662.47
2023-03-06T23:16:02.397Z,98670.06
2023-03-06T23:18:47.401Z,98659.75
2023-03-06T23:21:34.127Z,98658.69
2023-03-06T23:24:19.430Z,98660.28
2023-03-06T23:26:46.216Z,98668.47
2023-03-06T23:29:12.915Z,98666.88
2023-03-06T23:31:39.704Z,98662.31
2023-03-06T23:34:06.244Z,98662.38
2023-03-06T23:36:32.901Z,98659.69
2023-03-06T23:38:59.357Z,98663.91
2023-03-06T23:41:26.106Z,98667.09
2023-03-06T23:43:55.056Z,98659.41
2023-03-06T23:46:22.103Z,98667.25
2023-03-06T23:48:48.554Z,98657.56
2023-03-06T23:51:20.224Z,98668.03
2023-03-06T23:53:47.956Z,98658.59
2023-03-06T23:56:14.483Z,98664.28
2023-03-06T23:58:41.139Z,98666.06
